Thunder radar more information blitzortung!


avis per Pluja more information rain snow radar


Visita la nostra xarxa de llocs de meteo:

Template documentation
and downloads

And another site



Rain From: 18-11-2018 11:00 Until: 20:59 warning for: Rain Level: Yellow info button

Pagina Historial Weather Underground text

Diari Resum January 20, 2018 Unitats:  Mètric    Imperial   Tant
« Previous Dia
SegĂźent Dia »
Diari Setmana Mensual Anual Personalitzada
  Maxima: Minima: Media:
Temperatura: -17.8 °C -15.5 °C -11.1 °C
Punt de rosada: -17.8 °C -18.1 °C -16.1 °C
Humitat: Humidity % 45 % 55 %
Wind Speed: 0 km/h 0 km/h 10.1 km/h
RĂ fegues de vent: 0 km/h - -
Vent:- - SW
Pression baro: 0 hPa 34395 hPa -
Precipitacions: 0 mm    
Historical Graphs
 
 
Dades de taula per January 20, 2018
Temps Temperatura Punt de rosada Pression baro Vent Wind Speed RĂ fegues de vent Humitat Rainfall Rate (Hourly)
-17.8 °C -17.8 °C 0 hPa Calm     Humidity % 0 mm
00:00 -15.3 °C -17.9 °C 34567.7 hPa Calm   7.7 km/h 71 % 0 mm
00:04 -14.1 °C -16.8 °C 34533.8 hPa WSW 6 km/h 6 km/h 71 % 0 mm
00:09 -14 °C -16.7 °C 34533.8 hPa WSW 3.1 km/h   71 % 0 mm
00:14 -13.9 °C -16.7 °C 34533.8 hPa Calm     71 % 0 mm
00:20 -15.4 °C -18.1 °C 34601.5 hPa WNW 2.6 km/h 2.6 km/h 71 % 0 mm
00:30 -15.4 °C -18.1 °C 34601.5 hPa WNW 5.1 km/h 5.1 km/h 71 % 0 mm
00:40 -15.3 °C -17.9 °C 34601.5 hPa NNE 7.7 km/h 10.3 km/h 72 % 0 mm
00:50 -15.4 °C -17.9 °C 34567.7 hPa NE 7.7 km/h 12.9 km/h 72 % 0 mm
01:00 -15.4 °C -18 °C 34567.7 hPa NNE 5.1 km/h 10.3 km/h 72 % 0 mm
01:10 -15.5 °C -18.1 °C 34567.7 hPa North 2.6 km/h 5.1 km/h 72 % 0 mm
01:20 -15.5 °C -18.1 °C 34567.7 hPa NNW 2.6 km/h 5.1 km/h 72 % 0 mm
01:30 -15.5 °C -17.9 °C 34567.7 hPa North 2.6 km/h 7.7 km/h 73 % 0 mm
01:40 -15.4 °C -17.9 °C 34601.5 hPa NNW 2.6 km/h 5.1 km/h 73 % 0 mm
01:50 -15.4 °C -17.8 °C 34567.7 hPa NNE 2.6 km/h 7.7 km/h 73 % 0 mm
02:00 -15.4 °C -17.9 °C 34567.7 hPa NNE 2.6 km/h 7.7 km/h 73 % 0 mm
02:10 -15.5 °C -17.9 °C 34601.5 hPa North 2.6 km/h 7.7 km/h 73 % 0 mm
02:20 -15.5 °C -17.9 °C 34601.5 hPa NNE 5.1 km/h 7.7 km/h 73 % 0 mm
02:30 -15.5 °C -17.9 °C 34601.5 hPa NNE 5.1 km/h 10.3 km/h 73 % 0 mm
02:40 -15.4 °C -17.8 °C 34601.5 hPa NNE 2.6 km/h 5.1 km/h 73 % 0 mm
03:00 -14.8 °C -17.3 °C 34601.5 hPa North 2.6 km/h 7.7 km/h 73 % 0 mm
03:10 -14.7 °C -17.3 °C 34601.5 hPa NE 5.1 km/h 7.7 km/h 72 % 0 mm
03:20 -14.6 °C -17.3 °C 34601.5 hPa NE 7.7 km/h 10.3 km/h 71 % 0 mm
03:30 -14.3 °C -17.1 °C 34601.5 hPa NNE 5.1 km/h 5.1 km/h 71 % 0 mm
03:40 -14 °C -16.7 °C 34601.5 hPa Calm   5.1 km/h 71 % 0 mm
03:50 -13.8 °C -16.6 °C 34601.5 hPa Calm   5.1 km/h 70 % 0 mm
04:00 -13.8 °C -16.7 °C 34601.5 hPa North 2.6 km/h 7.7 km/h 69 % 0 mm
04:10 -14.1 °C -17.1 °C 34601.5 hPa NE 15.6 km/h 15.6 km/h 68 % 0 mm
04:20 -13.9 °C -16.9 °C 34601.5 hPa NE 7.7 km/h 10.3 km/h 68 % 0 mm
04:30 -13.6 °C -16.6 °C 34601.5 hPa NE 7.7 km/h 10.3 km/h 68 % 0 mm
04:40 -13.3 °C -16.5 °C 34601.5 hPa NNE 2.6 km/h 10.3 km/h 67 % 0 mm
04:50 -13 °C -16.2 °C 34601.5 hPa NNE 2.6 km/h 7.7 km/h 67 % 0 mm
05:00 -13.1 °C -16.4 °C 34601.5 hPa NE 5.1 km/h 10.3 km/h 66 % 0 mm
05:10 -12.6 °C -15.9 °C 34601.5 hPa NE 7.7 km/h 7.7 km/h 66 % 0 mm
05:20 -12.5 °C -16 °C 34601.5 hPa NE 2.6 km/h 7.7 km/h 65 % 0 mm
05:30 -12.1 °C -15.6 °C 34601.5 hPa ENE 5.1 km/h 7.7 km/h 65 % 0 mm
05:40 -11.6 °C -15.2 °C 34601.5 hPa WSW 5.1 km/h 10.3 km/h 64 % 0 mm
05:50 -11.3 °C -15.1 °C 34567.7 hPa WSW 7.7 km/h 15.6 km/h 63 % 0 mm
06:00 -11.2 °C -15.2 °C 34567.7 hPa West 5.1 km/h 10.3 km/h 61 % 0 mm
06:10 -10.9 °C -15.1 °C 34533.8 hPa WNW 2.6 km/h 7.7 km/h 60 % 0 mm
06:20 -10.7 °C -15 °C 34533.8 hPa WNW 2.6 km/h 5.1 km/h 59 % 0 mm
06:30 -10.6 °C -15.1 °C 34533.8 hPa West 12.9 km/h 12.9 km/h 58 % 0 mm
06:40 -10.3 °C -14.9 °C 34533.8 hPa West 2.6 km/h 7.7 km/h 57 % 0 mm
06:50 -10.3 °C -15.2 °C 34496.6 hPa WSW 15.6 km/h 25.9 km/h 55 % 0 mm
07:00 -10.1 °C -15.2 °C 34496.6 hPa WSW 2.6 km/h 15.6 km/h 54 % 0 mm
07:10 -9.9 °C -15.1 °C 34533.8 hPa WSW 7.7 km/h 12.9 km/h 54 % 0 mm
07:20 -9.8 °C -15.1 °C 34496.6 hPa West 7.7 km/h 20.8 km/h 53 % 0 mm
07:30 -9.8 °C -15.2 °C 34496.6 hPa West 15.6 km/h 15.6 km/h 52 % 0 mm
13:32 -9.8 °C -15.2 °C 34496.6 hPa WNW 17.9 km/h 17.9 km/h 52 % 0 mm
13:37 -9.9 °C -15.5 °C 34496.6 hPa SW 23.8 km/h 23.8 km/h 51 % 0 mm
13:42 -9.8 °C -15.4 °C 34496.6 hPa WSW 14 km/h 14 km/h 51 % 0 mm
13:47 -9.7 °C -15.3 °C 34462.7 hPa SW 9.8 km/h 9.8 km/h 51 % 0 mm
13:52 -9.9 °C -15.4 °C 34462.7 hPa WNW 32.8 km/h 32.8 km/h 51 % 0 mm
13:57 -9.9 °C -15.5 °C 34462.7 hPa WSW 15 km/h 15 km/h 51 % 0 mm
14:02 -10 °C -15.6 °C 34462.7 hPa SW 23.8 km/h 23.8 km/h 51 % 0 mm
14:07 -9.9 °C -15.4 °C 34462.7 hPa WSW 20.9 km/h 20.9 km/h 51 % 0 mm
14:12 -9.8 °C -15.4 °C 34462.7 hPa WNW 15.6 km/h 15.6 km/h 51 % 0 mm
14:17 -9.9 °C -15.4 °C 34462.7 hPa West 15 km/h 15 km/h 51 % 0 mm
14:22 -9.7 °C -15.3 °C 34462.7 hPa North 9 km/h 9 km/h 51 % 0 mm
14:27 -9.8 °C -15.5 °C 34462.7 hPa ENE 17.9 km/h 17.9 km/h 50 % 0 mm
14:32 -9.9 °C -15.6 °C 34462.7 hPa WSW 17.9 km/h 17.9 km/h 50 % 0 mm
14:37 -9.8 °C -15.6 °C 34462.7 hPa SW 15 km/h 15 km/h 50 % 0 mm
14:42 -9.8 °C -15.6 °C 34462.7 hPa WSW 17.9 km/h 17.9 km/h 50 % 0 mm
14:47 -9.8 °C -15.5 °C 34462.7 hPa ENE 15 km/h 15 km/h 50 % 0 mm
14:52 -9.7 °C -15.4 °C 34462.7 hPa NW 9 km/h 9 km/h 50 % 0 mm
14:57 -9.7 °C -15.6 °C 34462.7 hPa WSW 23.8 km/h 23.8 km/h 49 % 0 mm
15:02 -9.6 °C -15.5 °C 34462.7 hPa NNW 15 km/h 15 km/h 49 % 0 mm
15:07 -9.6 °C -15.4 °C 34462.7 hPa WNW 20.9 km/h 20.9 km/h 49 % 0 mm
15:12 -9.5 °C -15.6 °C 34462.7 hPa West 25.4 km/h 25.4 km/h 48 % 0 mm
15:17 -9.4 °C -15.5 °C 34462.7 hPa WSW 15 km/h 15 km/h 48 % 0 mm
15:22 -9.2 °C -15.3 °C 34462.7 hPa West 9.3 km/h 9.3 km/h 48 % 0 mm
15:27 -9.2 °C -15.3 °C 34462.7 hPa NW 22.5 km/h 22.5 km/h 48 % 0 mm
15:32 -9.1 °C -15.2 °C 34462.7 hPa NW 11.9 km/h 11.9 km/h 48 % 0 mm
15:33 -9.1 °C -15.2 °C 34462.7 hPa WSW 15 km/h 15 km/h 48 % 0 mm
15:38 -9.2 °C -15.5 °C 34462.7 hPa WSW 39.4 km/h 39.4 km/h 47 % 0 mm
15:43 -9.2 °C -15.6 °C 34462.7 hPa WNW 17.9 km/h 17.9 km/h 46 % 0 mm
15:48 -9 °C -15.3 °C 34462.7 hPa WSW 15.3 km/h 15.3 km/h 47 % 0 mm
15:53 -9.1 °C -15.6 °C 34462.7 hPa SW 15 km/h 15 km/h 46 % 0 mm
15:58 -9.1 °C -15.5 °C 34462.7 hPa ESE 9 km/h 9 km/h 46 % 0 mm
16:03 -9 °C -15.4 °C 34462.7 hPa West 20.9 km/h 20.9 km/h 46 % 0 mm
16:08 -9.1 °C -15.7 °C 34462.7 hPa WNW 20.9 km/h 20.9 km/h 45 % 0 mm
16:13 -9.2 °C -15.8 °C 34462.7 hPa WSW 17.9 km/h 17.9 km/h 45 % 0 mm
16:18 -9.2 °C -15.8 °C 34462.7 hPa WSW 15 km/h 15 km/h 45 % 0 mm
16:23 -9.1 °C -15.7 °C 34462.7 hPa SSW 7.6 km/h 7.6 km/h 45 % 0 mm
16:28 -9.1 °C -15.7 °C 34462.7 hPa SW 9 km/h 9 km/h 45 % 0 mm
16:33 -9.3 °C -15.9 °C 34428.8 hPa SW 11.9 km/h 11.9 km/h 45 % 0 mm
16:38 -9.4 °C -16 °C 34428.8 hPa West 9 km/h 9 km/h 45 % 0 mm
16:43 -9.3 °C -15.9 °C 34428.8 hPa SSW 9 km/h 9 km/h 45 % 0 mm
16:48 -9.2 °C -15.8 °C 34462.7 hPa WSW 9 km/h 9 km/h 45 % 0 mm
16:53 -9.3 °C -15.9 °C 34462.7 hPa NW 6 km/h 6 km/h 45 % 0 mm
16:58 -9.4 °C -16 °C 34462.7 hPa SSE 11.9 km/h 11.9 km/h 45 % 0 mm
17:03 -9.3 °C -15.9 °C 34462.7 hPa SSE 3.1 km/h   45 % 0 mm
17:08 -9.3 °C -15.9 °C 34462.7 hPa NW 9 km/h 9 km/h 45 % 0 mm
17:13 -9.3 °C -15.9 °C 34462.7 hPa West 6 km/h 6 km/h 45 % 0 mm
17:18 -9.4 °C -16 °C 34428.8 hPa WSW 15 km/h 15 km/h 45 % 0 mm
17:23 -9.4 °C -16 °C 34428.8 hPa SW 9 km/h 9 km/h 45 % 0 mm
17:28 -9.4 °C -16 °C 34428.8 hPa SSW 11.9 km/h 11.9 km/h 45 % 0 mm
17:33 -9.5 °C -16.1 °C 34428.8 hPa West 6 km/h 6 km/h 45 % 0 mm
17:38 -9.6 °C -16.2 °C 34428.8 hPa SSW 11.9 km/h 11.9 km/h 45 % 0 mm
17:43 -9.7 °C -16.2 °C 34428.8 hPa NW 9 km/h 9 km/h 45 % 0 mm
17:48 -9.8 °C -16.3 °C 34462.7 hPa WSW 9 km/h 9 km/h 45 % 0 mm
17:53 -9.9 °C -16.4 °C 34462.7 hPa West 6.8 km/h 6.8 km/h 45 % 0 mm
17:58 -9.9 °C -16.5 °C 34462.7 hPa SW 6 km/h 6 km/h 45 % 0 mm
18:03 -10 °C -16.6 °C 34428.8 hPa WSW 14 km/h 14 km/h 45 % 0 mm
18:08 -10 °C -16.6 °C 34428.8 hPa SW 9 km/h 9 km/h 45 % 0 mm
18:13 -10.1 °C -16.6 °C 34428.8 hPa WSW 9 km/h 9 km/h 45 % 0 mm
18:18 -10.2 °C -16.7 °C 34428.8 hPa WSW 6.8 km/h 6.8 km/h 45 % 0 mm
18:23 -10.3 °C -16.8 °C 34428.8 hPa WSW 8 km/h 8 km/h 45 % 0 mm
18:28 -10.2 °C -16.6 °C 34428.8 hPa WNW 9.8 km/h 9.8 km/h 46 % 0 mm
18:33 -10.3 °C -16.6 °C 34428.8 hPa WSW 9 km/h 9 km/h 46 % 0 mm
18:38 -10.3 °C -16.7 °C 34428.8 hPa SW 11.9 km/h 11.9 km/h 46 % 0 mm
18:43 -10.3 °C -16.7 °C 34428.8 hPa WSW 9 km/h 11.1 km/h 46 % 0 mm
18:48 -10.4 °C -16.7 °C 34428.8 hPa WSW 7.6 km/h 7.6 km/h 46 % 0 mm
18:53 -10.5 °C -16.8 °C 34428.8 hPa SW 6.3 km/h 6.3 km/h 46 % 0 mm
18:58 -10.5 °C -16.8 °C 34428.8 hPa WSW 11.9 km/h 11.9 km/h 46 % 0 mm
19:03 -10.6 °C -16.7 °C 34395 hPa WSW 9 km/h 9 km/h 47 % 0 mm
19:08 -10.6 °C -16.8 °C 34395 hPa West 6.3 km/h 6.3 km/h 47 % 0 mm
19:13 -10.7 °C -16.8 °C 34395 hPa WSW 9 km/h 9 km/h 47 % 0 mm
19:18 -10.7 °C -16.8 °C 34395 hPa SW 9 km/h 9 km/h 47 % 0 mm
19:23 -10.8 °C -16.7 °C 34395 hPa West 9 km/h 9 km/h 48 % 0 mm
19:28 -10.8 °C -16.8 °C 34395 hPa WSW 9 km/h 9 km/h 48 % 0 mm
19:33 -10.8 °C -16.8 °C 34428.8 hPa WSW 8 km/h 8 km/h 48 % 0 mm
19:38 -10.9 °C -16.7 °C 34428.8 hPa SW 8 km/h 8 km/h 49 % 0 mm
19:43 -10.8 °C -16.6 °C 34428.8 hPa SW 15 km/h 15 km/h 49 % 0 mm
19:48 -10.8 °C -16.5 °C 34428.8 hPa West 9 km/h 9 km/h 50 % 0 mm
19:53 -10.9 °C -16.5 °C 34428.8 hPa West 9 km/h 9 km/h 50 % 0 mm
19:58 -10.8 °C -16.5 °C 34428.8 hPa West 9 km/h 9 km/h 50 % 0 mm
20:03 -10.8 °C -16.5 °C 34428.8 hPa West 9 km/h 9 km/h 50 % 0 mm
20:08 -10.8 °C -16.3 °C 34428.8 hPa West 9 km/h 9 km/h 51 % 0 mm
20:13 -10.8 °C -16.3 °C 34428.8 hPa WSW 9 km/h 9 km/h 51 % 0 mm
20:18 -10.8 °C -16.3 °C 34428.8 hPa West 15 km/h 15 km/h 51 % 0 mm
20:23 -10.7 °C -16.1 °C 34428.8 hPa WSW 14.5 km/h 14.5 km/h 52 % 0 mm
20:28 -10.7 °C -16.1 °C 34428.8 hPa WSW 15 km/h 15 km/h 52 % 0 mm
20:33 -10.7 °C -16 °C 34395 hPa West 6 km/h 6.8 km/h 52 % 0 mm
20:38 -10.7 °C -16.1 °C 34395 hPa WSW 6.3 km/h 6.3 km/h 52 % 0 mm
20:43 -10.7 °C -16.1 °C 34395 hPa West 9 km/h 9 km/h 52 % 0 mm
20:48 -10.7 °C -15.9 °C 34428.8 hPa WSW 15 km/h 15 km/h 53 % 0 mm
20:53 -10.7 °C -15.9 °C 34428.8 hPa WSW 6 km/h 6 km/h 53 % 0 mm
20:58 -10.8 °C -15.9 °C 34428.8 hPa SW 6 km/h 6 km/h 53 % 0 mm
21:03 -10.8 °C -15.9 °C 34395 hPa WSW 15 km/h 15 km/h 53 % 0 mm
21:08 -10.8 °C -15.9 °C 34395 hPa WNW 9 km/h 9 km/h 53 % 0 mm
21:13 -10.8 °C -15.9 °C 34395 hPa SSW 6 km/h 6 km/h 54 % 0 mm
21:18 -10.8 °C -15.8 °C 34395 hPa South 6 km/h 6 km/h 54 % 0 mm
21:23 -10.8 °C -15.9 °C 34395 hPa NW 6 km/h 6 km/h 54 % 0 mm
21:28 -10.8 °C -15.9 °C 34395 hPa WSW 6 km/h 6 km/h 54 % 0 mm
21:33 -10.8 °C -15.8 °C 34395 hPa WSW 9 km/h 9 km/h 54 % 0 mm
21:38 -10.7 °C -15.8 °C 34395 hPa West 7.6 km/h 7.6 km/h 54 % 0 mm
21:43 -10.7 °C -15.8 °C 34395 hPa WSW 6 km/h 6 km/h 54 % 0 mm
21:48 -10.7 °C -15.8 °C 34428.8 hPa WNW 17.9 km/h 17.9 km/h 54 % 0 mm
21:53 -10.7 °C -15.8 °C 34428.8 hPa West 11.9 km/h 11.9 km/h 54 % 0 mm
21:58 -10.7 °C -15.6 °C 34428.8 hPa WSW 8 km/h 8 km/h 55 % 0 mm
22:03 -10.7 °C -15.6 °C 34395 hPa West 9 km/h 9 km/h 55 % 0 mm
22:08 -10.8 °C -15.7 °C 34395 hPa WNW 6 km/h 6 km/h 55 % 0 mm
22:13 -10.8 °C -15.7 °C 34395 hPa West 15 km/h 15 km/h 55 % 0 mm
22:18 -10.8 °C -15.7 °C 34395 hPa West 9 km/h 9 km/h 55 % 0 mm
22:23 -10.9 °C -15.7 °C 34395 hPa WNW 9 km/h 9 km/h 56 % 0 mm
22:28 -10.9 °C -15.7 °C 34395 hPa WSW 9 km/h 9 km/h 56 % 0 mm
22:33 -10.9 °C -15.7 °C 34428.8 hPa WSW 11.9 km/h 11.9 km/h 56 % 0 mm
22:38 -10.9 °C -15.7 °C 34428.8 hPa WSW 11.9 km/h 11.9 km/h 56 % 0 mm
22:43 -10.9 °C -15.6 °C 34428.8 hPa WSW 15.6 km/h 15.6 km/h 57 % 0 mm
22:48 -10.9 °C -15.5 °C 34395 hPa WSW 15.3 km/h 15.3 km/h 57 % 0 mm
22:53 -10.9 °C -15.4 °C 34395 hPa West 15 km/h 15 km/h 58 % 0 mm
22:58 -10.9 °C -15.4 °C 34395 hPa WNW 15 km/h 15 km/h 58 % 0 mm
23:03 -10.9 °C -15.2 °C 34428.8 hPa NNW 29.5 km/h 29.5 km/h 59 % 0 mm
23:08 -10.9 °C -15.2 °C 34428.8 hPa NNW 11.9 km/h 11.9 km/h 59 % 0 mm
23:13 -10.9 °C -15.2 °C 34428.8 hPa WSW 15 km/h 15 km/h 59 % 0 mm
23:18 -10.9 °C -15.1 °C 34428.8 hPa SSW 6 km/h 6 km/h 60 % 0 mm
23:23 -10.9 °C -15.1 °C 34428.8 hPa WSW 20.9 km/h 20.9 km/h 60 % 0 mm
23:28 -10.9 °C -15.1 °C 34428.8 hPa NNW 9 km/h 9 km/h 60 % 0 mm
23:33 -10.9 °C -15.1 °C 34428.8 hPa West 6 km/h 6 km/h 60 % 0 mm
23:38 -11 °C -15.2 °C 34428.8 hPa South 11.9 km/h 11.9 km/h 60 % 0 mm
23:43 -11 °C -15.2 °C 34428.8 hPa West 6 km/h 6 km/h 60 % 0 mm
23:48 -11.1 °C -15.2 °C 34462.7 hPa WNW 9 km/h 9 km/h 60 % 0 mm
23:53 -11.1 °C -15.1 °C 34462.7 hPa West 6 km/h 6 km/h 61 % 0 mm
23:58 -11.1 °C -15.1 °C 34462.7 hPa WSW 9 km/h 9 km/h 61 % 0 mm
Meteo Sesrovires
Elogis d' Weather Underground - 1.5 mb

Guio original per  Jim McMurry - jmcmurry@mwt.net Adaptat per a la plantilla per  Wim van der Kuil - Leuven-Template.eu

Trobareu la nostra informacio del temps tambe a:

Weather Underground

AWEKAS